Terminal Aerodrome Forecast
Issued by NWS

Home | Current Version | Previous Version | Text Only | Print | Product List | Glossary On
Versions: 1 2 3 4 5 6 7 8 9 10 11 12 13 14 15 16 17 18 19 20 21 22
911
FTAK31 PAJN 180538
TAFASI
TAF
PASI 180538Z 1806/1906 11015KT P6SM SCT060 OVC120 WS020/13040KT
     FM180900 11022G32KT P6SM -RA OVC060 WS020/13050KT
     FM181500 12015G22KT 6SM -RA BR OVC030 WS020/15035KT
     FM181800 12010KT P6SM -SHRA SCT030 OVC050
     FM182100 11008KT P6SM VCSH SCT040 BKN060=

USA.gov is the U.S. government's official web portal to all federal, state and local government web resources and services.